FIN8CA EBBR-EFHK
Flight info
| Callsign | FIN8CA |
|---|---|
| Flight time | N/A |
| Altitude | 35000 |
| Route | NIK L191 VICOT N873 BEDUM DCT DOSUR DCT PELUP DCT INGIS DCT ALAMI DCT OKEVU DCT EVADI Y370 DIVAM |
| Aircraft | A321/M-SADE1E2E3FGIJ1M3RWXYZ/LB1 |
Departure
| Time | 2026-05-04 10:51 |
|---|---|
| Airport | Brussels Airport (EBBR) |
Arrival
| Time | N/A |
|---|---|
| Airport | Helsinki Vantaa Airport (EFHK) |
| Time | Latitude | Longitude | Altitude | Speed | Heading |
|---|---|---|---|---|---|
| 2026-05-04 10:19 | 50.90412 | 4.48591 | 119 ft | 0 kts | 155° |
| 2026-05-04 10:21 | 50.90413 | 4.48591 | 118 ft | 0 kts | 155° |
| 2026-05-04 10:44 | 50.90460 | 4.48557 | 118 ft | 3 kts | 155° |
| 2026-05-04 10:45 | 50.90478 | 4.48535 | 116 ft | 4 kts | 107° |
| 2026-05-04 10:45 | 50.90478 | 4.48497 | 116 ft | 4 kts | 68° |
| 2026-05-04 10:45 | 50.90473 | 4.48480 | 118 ft | 1 kts | 65° |
| 2026-05-04 10:47 | 50.90474 | 4.48483 | 118 ft | 2 kts | 65° |
| 2026-05-04 10:49 | 50.90742 | 4.49409 | 119 ft | 17 kts | 65° |
| 2026-05-04 10:49 | 50.90790 | 4.49575 | 120 ft | 17 kts | 61° |
| 2026-05-04 10:50 | 50.90871 | 4.49645 | 121 ft | 13 kts | 13° |
| 2026-05-04 10:51 | 50.89681 | 4.44749 | 1080 ft | 163 kts | 249° |
| 2026-05-04 10:52 | 50.89703 | 4.42956 | 1765 ft | 175 kts | 292° |
| 2026-05-04 10:52 | 50.90643 | 4.41606 | 2141 ft | 197 kts | 328° |
| 2026-05-04 10:52 | 50.91910 | 4.40555 | 2381 ft | 216 kts | 329° |
| 2026-05-04 10:54 | 51.03206 | 4.30647 | 6485 ft | 284 kts | 326° |
| 2026-05-04 10:54 | 51.04925 | 4.29069 | 7168 ft | 287 kts | 326° |
| 2026-05-04 10:56 | 51.17708 | 4.16953 | 10640 ft | 351 kts | 320° |
| 2026-05-04 10:56 | 51.19506 | 4.14836 | 11089 ft | 357 kts | 320° |
| 2026-05-04 10:56 | 51.21515 | 4.12479 | 11715 ft | 360 kts | 320° |
| 2026-05-04 10:57 | 51.23522 | 4.10124 | 12331 ft | 364 kts | 320° |
| 2026-05-04 10:57 | 51.25659 | 4.07837 | 12951 ft | 370 kts | 328° |
| 2026-05-04 10:57 | 51.28056 | 4.06232 | 13571 ft | 378 kts | 340° |
| 2026-05-04 10:57 | 51.30662 | 4.05450 | 14147 ft | 385 kts | 353° |
| 2026-05-04 10:58 | 51.33360 | 4.05346 | 14707 ft | 390 kts | 357° |
| 2026-05-04 10:58 | 51.36083 | 4.05296 | 15270 ft | 393 kts | 357° |
| 2026-05-04 10:58 | 51.38828 | 4.05246 | 15826 ft | 397 kts | 357° |
| 2026-05-04 10:58 | 51.41605 | 4.05194 | 16370 ft | 400 kts | 357° |
| 2026-05-04 10:59 | 51.44364 | 4.05138 | 16894 ft | 404 kts | 357° |
| 2026-05-04 10:59 | 51.47191 | 4.05403 | 17400 ft | 410 kts | 7° |
| 2026-05-04 10:59 | 51.49973 | 4.06497 | 17912 ft | 415 kts | 19° |
| 2026-05-04 10:59 | 51.52639 | 4.08335 | 18406 ft | 419 kts | 25° |
| 2026-05-04 11:00 | 51.55302 | 4.10322 | 18855 ft | 423 kts | 25° |
| 2026-05-04 11:01 | 51.74560 | 4.24662 | 22009 ft | 448 kts | 26° |
| 2026-05-04 11:02 | 51.77401 | 4.26789 | 22440 ft | 452 kts | 26° |
| 2026-05-04 11:02 | 51.80259 | 4.28937 | 22852 ft | 455 kts | 26° |
| 2026-05-04 11:05 | 52.22064 | 4.60667 | 27610 ft | 493 kts | 27° |
| 2026-05-04 11:06 | 52.24129 | 4.62254 | 27814 ft | 495 kts | 27° |
| 2026-05-04 11:06 | 52.27250 | 4.64654 | 28121 ft | 497 kts | 27° |
| 2026-05-04 11:06 | 52.30381 | 4.67064 | 28420 ft | 499 kts | 27° |
| 2026-05-04 11:06 | 52.33534 | 4.69492 | 28717 ft | 502 kts | 27° |
| 2026-05-04 11:08 | 52.55215 | 4.88554 | 31156 ft | 503 kts | 47° |
| 2026-05-04 11:10 | 52.70438 | 5.19642 | 33410 ft | 499 kts | 55° |
| 2026-05-04 11:12 | 52.85363 | 5.51249 | 35012 ft | 496 kts | 54° |
| 2026-05-04 11:12 | 52.87487 | 5.55768 | 35002 ft | 496 kts | 54° |
| 2026-05-04 11:12 | 52.91712 | 5.64801 | 35012 ft | 495 kts | 54° |
| 2026-05-04 11:13 | 52.95893 | 5.73779 | 35013 ft | 495 kts | 54° |
| 2026-05-04 11:13 | 53.00127 | 5.82894 | 35014 ft | 495 kts | 54° |
| 2026-05-04 11:14 | 53.02914 | 5.88900 | 35023 ft | 496 kts | 54° |
| 2026-05-04 11:16 | 53.06836 | 5.97567 | 35020 ft | 495 kts | 54° |
| 2026-05-04 11:16 | 53.08336 | 6.00830 | 35019 ft | 495 kts | 54° |
| 2026-05-04 11:17 | 53.11901 | 6.08507 | 35019 ft | 495 kts | 53° |
| 2026-05-04 11:19 | 53.28622 | 6.45125 | 35036 ft | 496 kts | 54° |
| 2026-05-04 11:19 | 53.32786 | 6.54356 | 35035 ft | 496 kts | 54° |
| 2026-05-04 11:20 | 53.37381 | 6.63080 | 35036 ft | 497 kts | 44° |
| 2026-05-04 11:20 | 53.42325 | 6.71161 | 35031 ft | 497 kts | 44° |
| 2026-05-04 11:22 | 53.59521 | 6.99560 | 35010 ft | 484 kts | 43° |
| 2026-05-04 11:22 | 53.61908 | 7.03534 | 34996 ft | 482 kts | 43° |
| 2026-05-04 11:23 | 53.66713 | 7.11548 | 35000 ft | 483 kts | 43° |
| 2026-05-04 11:25 | 53.83504 | 7.39740 | 35040 ft | 486 kts | 43° |
| 2026-05-04 11:25 | 53.88290 | 7.47846 | 35047 ft | 486 kts | 43° |
| 2026-05-04 11:27 | 54.09806 | 7.84619 | 35058 ft | 487 kts | 43° |
| 2026-05-04 11:28 | 54.14598 | 7.92901 | 35056 ft | 487 kts | 43° |
| 2026-05-04 11:28 | 54.19339 | 8.01092 | 35052 ft | 487 kts | 43° |
| 2026-05-04 11:29 | 54.24093 | 8.09349 | 35048 ft | 486 kts | 44° |
| 2026-05-04 11:29 | 54.28863 | 8.17684 | 35040 ft | 486 kts | 44° |
| 2026-05-04 11:33 | 54.61177 | 8.74814 | 35029 ft | 487 kts | 44° |
| 2026-05-04 11:33 | 54.65911 | 8.83300 | 35030 ft | 487 kts | 44° |
| 2026-05-04 11:34 | 54.70642 | 8.91820 | 35023 ft | 487 kts | 44° |
| 2026-05-04 11:34 | 54.75338 | 9.00283 | 35020 ft | 487 kts | 44° |
| 2026-05-04 11:35 | 54.80031 | 9.08769 | 35012 ft | 487 kts | 44° |
| 2026-05-04 11:35 | 54.84704 | 9.17280 | 35005 ft | 487 kts | 44° |
| 2026-05-04 11:36 | 54.89373 | 9.25830 | 35004 ft | 487 kts | 44° |
| 2026-05-04 11:36 | 54.94052 | 9.34461 | 35008 ft | 487 kts | 44° |
| 2026-05-04 11:37 | 54.98668 | 9.43013 | 35010 ft | 487 kts | 44° |
| 2026-05-04 11:37 | 55.03340 | 9.51702 | 35248 ft | 488 kts | 45° |